createdAt,value
2023-02-01T00:01:08.445Z,2.20
2023-02-01T00:03:36.327Z,2.20
2023-02-01T00:06:03.948Z,2.20
2023-02-01T00:08:31.551Z,2.10
2023-02-01T00:11:00.899Z,2.00
2023-02-01T00:13:32.322Z,2.00
2023-02-01T00:16:18.684Z,1.90
2023-02-01T00:18:47.783Z,1.90
2023-02-01T00:21:16.892Z,2.00
2023-02-01T00:23:44.734Z,2.00
2023-02-01T00:26:18.633Z,2.00
2023-02-01T00:28:46.747Z,2.10
2023-02-01T00:31:16.102Z,2.10
2023-02-01T00:33:43.764Z,1.90
2023-02-01T00:36:11.665Z,1.90
2023-02-01T00:38:39.846Z,1.90
2023-02-01T00:41:10.955Z,1.90
2023-02-01T00:43:38.653Z,1.90
2023-02-01T00:46:07.880Z,1.90
2023-02-01T00:48:35.705Z,1.90
2023-02-01T00:51:05.583Z,1.90
2023-02-01T00:53:33.963Z,1.80
2023-02-01T00:56:01.434Z,1.80
2023-02-01T00:58:29.903Z,1.80
2023-02-01T01:01:17.383Z,1.80
2023-02-01T01:03:48.039Z,1.80
2023-02-01T01:06:17.406Z,1.70
2023-02-01T01:08:45.198Z,1.80
2023-02-01T01:11:19.135Z,1.80
2023-02-01T01:13:49.379Z,1.80
2023-02-01T01:16:17.031Z,1.80
2023-02-01T01:18:45.177Z,1.80
2023-02-01T01:21:14.385Z,1.80
2023-02-01T01:23:43.218Z,1.90
2023-02-01T01:26:17.581Z,1.90
2023-02-01T01:28:45.648Z,1.70
2023-02-01T01:31:14.989Z,1.70
2023-02-01T01:33:44.860Z,1.70
2023-02-01T01:36:13.430Z,1.70
2023-02-01T01:38:42.359Z,1.70
2023-02-01T01:41:14.344Z,1.80
2023-02-01T01:43:50.833Z,1.80
2023-02-01T01:46:25.153Z,1.80
2023-02-01T01:49:02.534Z,1.80
2023-02-01T01:51:32.585Z,1.80
2023-02-01T01:54:22.836Z,1.80
2023-02-01T01:56:53.255Z,1.80
2023-02-01T01:59:22.871Z,1.80
2023-02-01T02:01:50.471Z,1.80
2023-02-01T02:04:18.848Z,1.70
2023-02-01T02:07:09.300Z,1.80
2023-02-01T02:09:36.796Z,1.80
2023-02-01T02:12:04.265Z,1.80
2023-02-01T02:14:35.130Z,1.80
2023-02-01T02:17:39.598Z,1.80
2023-02-01T02:20:28.646Z,1.80
2023-02-01T02:23:30.459Z,1.80
2023-02-01T02:26:10.148Z,1.90
2023-02-01T02:28:48.893Z,1.90
2023-02-01T02:31:47.069Z,2.00
2023-02-01T02:35:04.188Z,2.00
2023-02-01T02:37:40.269Z,2.00
2023-02-01T02:40:30.529Z,2.00
2023-02-01T02:43:48.310Z,2.00
2023-02-01T02:46:45.782Z,2.00
2023-02-01T02:49:30.364Z,2.10
2023-02-01T02:52:29.210Z,2.10
2023-02-01T02:54:58.806Z,2.10
2023-02-01T02:57:51.601Z,2.20
2023-02-01T03:00:40.846Z,2.20
2023-02-01T03:03:27.605Z,2.20
2023-02-01T03:05:55.357Z,2.20
2023-02-01T03:08:27.712Z,2.20
2023-02-01T03:11:09.195Z,2.30
2023-02-01T03:13:53.140Z,2.30
2023-02-01T03:16:29.690Z,2.30
2023-02-01T03:19:10.320Z,2.30
2023-02-01T03:24:35.699Z,2.40
2023-02-01T03:27:35.060Z,2.40
2023-02-01T03:30:22.240Z,2.50
2023-02-01T03:33:02.249Z,2.50
2023-02-01T03:36:01.643Z,2.50
2023-02-01T03:38:39.482Z,2.40
2023-02-01T03:41:32.125Z,2.40
2023-02-01T03:44:17.797Z,2.40
2023-02-01T03:46:57.088Z,2.50
2023-02-01T03:49:34.660Z,2.50
2023-02-01T03:52:06.201Z,2.50
2023-02-01T03:54:35.969Z,2.60
2023-02-01T03:57:07.934Z,2.60
2023-02-01T03:59:42.513Z,2.60
2023-02-01T04:02:10.084Z,2.70
2023-02-01T04:04:38.234Z,2.70
2023-02-01T04:07:06.300Z,2.70
2023-02-01T04:09:34.428Z,2.70
2023-02-01T04:12:01.683Z,2.70
2023-02-01T04:14:29.386Z,2.70
2023-02-01T04:16:56.680Z,2.70
2023-02-01T04:19:24.197Z,2.70
2023-02-01T04:21:51.422Z,2.80
2023-02-01T04:24:19.008Z,2.80
2023-02-01T04:26:46.351Z,2.80
2023-02-01T04:29:14.103Z,2.80
2023-02-01T04:31:41.810Z,2.80
2023-02-01T04:34:09.591Z,2.80
2023-02-01T04:36:36.770Z,2.80
2023-02-01T04:39:04.767Z,2.80
2023-02-01T04:41:31.996Z,2.70
2023-02-01T04:43:59.582Z,2.70
2023-02-01T04:46:27.123Z,2.70
2023-02-01T04:48:54.712Z,2.80
2023-02-01T04:51:22.139Z,2.80
2023-02-01T04:53:49.616Z,2.80
2023-02-01T04:56:16.851Z,2.70
2023-02-01T04:58:44.368Z,2.50
2023-02-01T05:01:11.555Z,2.50
2023-02-01T05:03:39.253Z,2.50
2023-02-01T05:06:06.786Z,2.50
2023-02-01T05:08:34.587Z,2.60
2023-02-01T05:11:03.613Z,2.60
2023-02-01T05:13:50.028Z,2.70
2023-02-01T05:16:17.842Z,2.80
2023-02-01T05:18:45.458Z,2.80
2023-02-01T05:21:13.640Z,2.80
2023-02-01T05:23:59.677Z,2.90
2023-02-01T05:26:27.092Z,2.90
2023-02-01T05:28:54.749Z,2.90
2023-02-01T05:31:23.044Z,2.90
2023-02-01T05:33:50.812Z,3.00
2023-02-01T05:36:18.447Z,3.00
2023-02-01T05:38:46.142Z,3.00
2023-02-01T05:41:13.597Z,3.00
2023-02-01T05:43:40.997Z,3.00
2023-02-01T05:46:08.392Z,3.00
2023-02-01T05:48:36.204Z,3.00
2023-02-01T05:51:03.444Z,3.10
2023-02-01T05:53:30.987Z,3.10
2023-02-01T05:55:58.229Z,3.10
2023-02-01T05:58:25.873Z,3.10
2023-02-01T06:00:53.069Z,3.10
2023-02-01T06:03:20.862Z,3.10
2023-02-01T06:05:48.860Z,3.10
2023-02-01T06:08:18.131Z,3.10
2023-02-01T06:10:45.314Z,3.20
2023-02-01T06:13:12.750Z,3.20
2023-02-01T06:15:39.879Z,3.20
2023-02-01T06:18:07.368Z,3.20
2023-02-01T06:20:34.605Z,3.20
2023-02-01T06:23:02.173Z,3.20
2023-02-01T06:25:29.431Z,3.20
2023-02-01T06:28:00.834Z,3.20
2023-02-01T06:30:28.617Z,3.20
2023-02-01T06:32:57.338Z,3.20
2023-02-01T06:35:24.523Z,3.20
2023-02-01T06:37:52.252Z,3.20
2023-02-01T06:40:19.747Z,3.30
2023-02-01T06:42:50.135Z,3.30
2023-02-01T06:45:17.968Z,3.30
2023-02-01T06:47:45.698Z,3.30
2023-02-01T06:50:13.005Z,3.30
2023-02-01T06:52:40.444Z,3.30
2023-02-01T06:55:08.234Z,3.30
2023-02-01T06:57:36.702Z,3.30
2023-02-01T07:00:07.371Z,3.30
2023-02-01T07:02:34.970Z,3.40
2023-02-01T07:05:02.434Z,3.30
2023-02-01T07:07:29.966Z,3.30
2023-02-01T07:09:57.440Z,3.30
2023-02-01T07:12:25.457Z,3.30
2023-02-01T07:14:52.794Z,3.30
2023-02-01T07:17:20.322Z,3.20
2023-02-01T07:19:47.557Z,3.20
2023-02-01T07:22:17.849Z,3.20
2023-02-01T07:24:45.018Z,3.30
2023-02-01T07:27:12.566Z,3.40
2023-02-01T07:29:39.829Z,3.40
2023-02-01T07:32:07.316Z,3.40
2023-02-01T07:34:35.033Z,3.40
2023-02-01T07:37:02.571Z,3.40
2023-02-01T07:39:29.786Z,3.50
2023-02-01T07:41:57.668Z,3.50
2023-02-01T07:44:24.900Z,3.50
2023-02-01T07:46:52.460Z,3.60
2023-02-01T07:49:19.836Z,3.60
2023-02-01T07:51:47.262Z,3.70
2023-02-01T07:54:14.663Z,3.60
2023-02-01T07:56:42.153Z,3.70
2023-02-01T07:59:09.390Z,3.70
2023-02-01T08:01:36.942Z,3.80
2023-02-01T08:04:04.949Z,3.70
2023-02-01T08:06:35.557Z,3.70
2023-02-01T08:09:04.426Z,3.70
2023-02-01T08:11:32.494Z,3.70
2023-02-01T08:14:00.123Z,3.70
2023-02-01T08:16:28.178Z,3.80
2023-02-01T08:18:55.864Z,3.90
2023-02-01T08:21:39.583Z,3.80
2023-02-01T08:24:09.633Z,3.70
2023-02-01T08:26:37.133Z,3.70
2023-02-01T08:29:07.665Z,3.80
2023-02-01T08:31:35.352Z,3.80
2023-02-01T08:34:05.310Z,3.80
2023-02-01T08:36:33.843Z,3.80
2023-02-01T08:39:01.350Z,3.90
2023-02-01T08:41:31.156Z,4.00
2023-02-01T08:43:59.081Z,3.90
2023-02-01T08:46:26.766Z,4.10
2023-02-01T08:48:54.206Z,4.20
2023-02-01T08:51:23.921Z,4.20
2023-02-01T08:53:51.665Z,4.30
2023-02-01T08:56:20.402Z,4.20
2023-02-01T08:58:48.019Z,4.30
2023-02-01T09:01:18.019Z,4.40
2023-02-01T09:03:46.807Z,4.40
2023-02-01T09:06:16.081Z,4.50
2023-02-01T09:08:44.016Z,4.30
2023-02-01T09:11:15.177Z,4.30
2023-02-01T09:13:42.774Z,3.80
2023-02-01T09:16:10.555Z,3.40
2023-02-01T09:18:45.991Z,3.30
2023-02-01T09:21:25.608Z,3.40
2023-02-01T09:23:53.172Z,3.40
2023-02-01T09:26:30.221Z,3.60
2023-02-01T09:28:59.406Z,3.60
2023-02-01T09:31:27.120Z,3.60
2023-02-01T09:33:54.508Z,3.70
2023-02-01T09:36:22.568Z,3.80
2023-02-01T09:38:53.389Z,3.80
2023-02-01T09:41:45.682Z,3.30
2023-02-01T09:44:51.659Z,2.60
2023-02-01T09:47:24.397Z,2.60
2023-02-01T09:50:27.503Z,2.50
2023-02-01T09:53:05.804Z,2.70
2023-02-01T09:55:44.199Z,2.70
2023-02-01T09:58:21.331Z,2.70
2023-02-01T10:00:59.975Z,2.70
2023-02-01T10:03:36.709Z,2.90
2023-02-01T10:06:06.715Z,2.80
2023-02-01T10:08:54.897Z,2.80
2023-02-01T10:11:52.634Z,2.70
2023-02-01T10:14:32.375Z,2.80
2023-02-01T10:17:13.368Z,2.80
2023-02-01T10:20:07.747Z,2.70
2023-02-01T10:23:13.741Z,2.70
2023-02-01T10:25:45.274Z,2.80
2023-02-01T10:28:18.793Z,2.90
2023-02-01T10:30:50.062Z,2.80
2023-02-01T10:33:17.699Z,3.00
2023-02-01T10:35:47.308Z,2.90
2023-02-01T10:38:28.172Z,3.10
2023-02-01T10:41:04.503Z,3.00
2023-02-01T10:43:32.650Z,3.10
2023-02-01T10:46:00.572Z,3.20
2023-02-01T10:48:30.284Z,3.10
2023-02-01T10:51:07.964Z,3.30
2023-02-01T10:53:47.114Z,3.20
2023-02-01T10:56:15.044Z,3.30
2023-02-01T10:58:47.947Z,3.50
2023-02-01T11:01:20.995Z,3.50
2023-02-01T11:04:05.396Z,3.30
2023-02-01T11:06:41.229Z,3.40
2023-02-01T11:09:08.504Z,3.40
2023-02-01T11:11:48.088Z,3.50
2023-02-01T11:14:19.560Z,3.40
2023-02-01T11:17:02.177Z,3.70
2023-02-01T11:19:30.258Z,3.80
2023-02-01T11:22:02.025Z,3.90
2023-02-01T11:24:39.386Z,4.10
2023-02-01T11:27:26.567Z,4.10
2023-02-01T11:29:59.496Z,4.20
2023-02-01T11:32:27.722Z,4.30
2023-02-01T11:35:05.038Z,4.40
2023-02-01T11:37:42.243Z,4.40
2023-02-01T11:40:35.090Z,4.40
2023-02-01T11:43:27.410Z,4.50
2023-02-01T11:45:57.409Z,4.60
2023-02-01T11:48:27.658Z,4.60
2023-02-01T11:51:11.859Z,4.80
2023-02-01T11:54:06.230Z,4.70
2023-02-01T11:56:56.819Z,4.30
2023-02-01T12:00:04.831Z,3.70
2023-02-01T12:02:57.705Z,3.50
2023-02-01T12:05:50.352Z,3.60
2023-02-01T12:08:36.316Z,3.80
2023-02-01T12:11:09.888Z,4.00
2023-02-01T12:13:58.355Z,4.30
2023-02-01T12:17:05.636Z,4.20
2023-02-01T12:19:51.284Z,4.20
2023-02-01T12:22:45.006Z,4.20
2023-02-01T12:25:18.367Z,4.20
2023-02-01T12:28:02.024Z,4.20
2023-02-01T12:30:42.046Z,3.60
2023-02-01T12:33:31.564Z,3.40
2023-02-01T12:36:06.613Z,3.20
2023-02-01T12:38:55.117Z,3.30
2023-02-01T12:41:34.356Z,3.20
2023-02-01T12:44:09.229Z,3.30
2023-02-01T12:46:42.873Z,3.30
2023-02-01T12:49:20.696Z,3.40
2023-02-01T12:51:51.246Z,3.70
2023-02-01T12:54:49.449Z,4.00
2023-02-01T12:57:26.394Z,4.10
2023-02-01T13:00:06.746Z,4.10
2023-02-01T13:02:53.062Z,4.20
2023-02-01T13:05:25.096Z,4.30
2023-02-01T13:07:59.873Z,4.50
2023-02-01T13:10:47.758Z,4.50
2023-02-01T13:13:17.687Z,4.50
2023-02-01T13:15:50.502Z,4.50
2023-02-01T13:18:21.201Z,4.50
2023-02-01T13:20:59.601Z,4.40
2023-02-01T13:23:27.183Z,4.40
2023-02-01T13:25:55.777Z,4.40
2023-02-01T13:28:45.390Z,4.30
2023-02-01T13:31:48.274Z,4.30
2023-02-01T13:34:39.935Z,4.40
2023-02-01T13:37:25.408Z,4.30
2023-02-01T13:40:02.597Z,4.30
2023-02-01T13:42:38.605Z,4.10
2023-02-01T13:45:16.663Z,4.10
2023-02-01T13:47:47.575Z,4.00
2023-02-01T13:50:35.114Z,3.90
2023-02-01T13:53:16.781Z,3.90
2023-02-01T13:56:09.908Z,3.80
2023-02-01T13:58:40.934Z,3.70
2023-02-01T14:01:23.502Z,3.70
2023-02-01T14:03:52.299Z,3.70
2023-02-01T14:06:28.616Z,3.70
2023-02-01T14:09:14.710Z,3.70
2023-02-01T14:11:54.560Z,3.80
2023-02-01T14:14:22.141Z,3.80
2023-02-01T14:16:55.354Z,3.80
2023-02-01T14:19:27.952Z,3.80
2023-02-01T14:21:59.853Z,3.80
2023-02-01T14:24:37.668Z,3.80
2023-02-01T14:27:14.807Z,3.80
2023-02-01T14:29:45.735Z,3.90
2023-02-01T14:32:20.704Z,3.90
2023-02-01T14:34:48.315Z,3.90
2023-02-01T14:37:18.545Z,3.90
2023-02-01T14:39:46.261Z,3.90
2023-02-01T14:42:25.649Z,3.80
2023-02-01T14:44:59.332Z,3.80
2023-02-01T14:47:31.990Z,3.80
2023-02-01T14:50:05.803Z,3.80
2023-02-01T14:52:43.442Z,3.80
2023-02-01T14:55:19.683Z,3.90
2023-02-01T14:57:50.932Z,3.70
2023-02-01T15:00:26.305Z,3.70
2023-02-01T15:02:55.855Z,3.60
2023-02-01T15:05:33.672Z,3.50
2023-02-01T15:08:08.542Z,3.50
2023-02-01T15:10:45.444Z,3.50
2023-02-01T15:13:24.556Z,3.50
2023-02-01T15:16:11.135Z,3.50
2023-02-01T15:18:39.328Z,3.50
2023-02-01T15:21:28.565Z,3.50
2023-02-01T15:24:13.323Z,3.50
2023-02-01T15:26:41.233Z,3.60
2023-02-01T15:29:13.160Z,3.60
2023-02-01T15:31:46.494Z,3.60
2023-02-01T15:34:14.109Z,3.50
2023-02-01T15:36:56.670Z,3.50
2023-02-01T15:39:31.586Z,3.50
2023-02-01T15:42:03.095Z,3.50
2023-02-01T15:44:43.814Z,3.50
2023-02-01T15:47:26.654Z,3.40
2023-02-01T15:49:57.990Z,3.40
2023-02-01T15:52:40.815Z,3.40
2023-02-01T15:55:23.517Z,3.40
2023-02-01T15:57:52.000Z,3.30
2023-02-01T16:00:34.586Z,3.30
2023-02-01T16:03:05.504Z,3.30
2023-02-01T16:05:43.533Z,3.20
2023-02-01T16:08:18.269Z,3.20
2023-02-01T16:10:47.835Z,3.20
2023-02-01T16:13:17.152Z,3.20
2023-02-01T16:15:44.993Z,3.30
2023-02-01T16:18:17.571Z,3.30
2023-02-01T16:20:46.447Z,3.30
2023-02-01T16:23:13.975Z,3.30
2023-02-01T16:25:41.262Z,3.20
2023-02-01T16:28:09.406Z,3.20
2023-02-01T16:30:37.351Z,3.10
2023-02-01T16:33:07.540Z,3.00
2023-02-01T16:35:37.239Z,3.10
2023-02-01T16:38:12.973Z,3.10
2023-02-01T16:40:41.179Z,3.10
2023-02-01T16:43:34.854Z,3.10
2023-02-01T16:46:06.172Z,3.20
2023-02-01T16:48:35.704Z,3.20
2023-02-01T16:51:09.571Z,3.20
2023-02-01T16:53:53.074Z,3.20
2023-02-01T16:56:29.603Z,3.20
2023-02-01T16:58:57.373Z,3.20
2023-02-01T17:01:25.513Z,3.10
2023-02-01T17:03:53.488Z,3.10
2023-02-01T17:06:23.725Z,3.10
2023-02-01T17:08:59.056Z,3.20
2023-02-01T17:11:27.680Z,3.20
2023-02-01T17:13:57.003Z,3.30
2023-02-01T17:16:29.609Z,3.30
2023-02-01T17:19:11.851Z,3.30
2023-02-01T17:21:45.591Z,3.40
2023-02-01T17:24:18.057Z,3.40
2023-02-01T17:26:46.459Z,3.40
2023-02-01T17:29:14.444Z,3.40
2023-02-01T17:31:45.032Z,3.40
2023-02-01T17:34:15.787Z,3.40
2023-02-01T17:36:46.862Z,3.40
2023-02-01T17:39:35.743Z,3.40
2023-02-01T17:42:04.618Z,3.40
2023-02-01T17:44:32.711Z,3.40
2023-02-01T17:47:00.073Z,3.30
2023-02-01T17:49:30.643Z,3.30
2023-02-01T17:51:58.331Z,3.30
2023-02-01T17:54:26.553Z,3.30
2023-02-01T17:56:54.094Z,3.40
2023-02-01T17:59:21.609Z,3.40
2023-02-01T18:01:49.480Z,3.40
2023-02-01T18:04:19.956Z,3.40
2023-02-01T18:06:47.322Z,3.30
2023-02-01T18:09:14.897Z,3.20
2023-02-01T18:11:42.614Z,3.20
2023-02-01T18:14:13.493Z,3.30
2023-02-01T18:16:41.741Z,3.30
2023-02-01T18:19:09.656Z,3.40
2023-02-01T18:21:44.640Z,3.40
2023-02-01T18:24:17.152Z,3.30
2023-02-01T18:26:44.449Z,3.30
2023-02-01T18:29:12.103Z,3.20
2023-02-01T18:31:46.327Z,3.00
2023-02-01T18:34:21.198Z,2.70
2023-02-01T18:36:52.653Z,2.50
2023-02-01T18:39:20.167Z,2.60
2023-02-01T18:41:49.251Z,2.60
2023-02-01T18:44:17.789Z,2.50
2023-02-01T18:46:45.300Z,2.30
2023-02-01T18:49:18.021Z,2.20
2023-02-01T18:51:46.678Z,2.30
2023-02-01T18:54:14.155Z,2.30
2023-02-01T18:56:42.909Z,2.40
2023-02-01T18:59:11.886Z,2.30
2023-02-01T19:01:39.238Z,2.40
2023-02-01T19:04:13.132Z,2.30
2023-02-01T19:06:45.018Z,2.30
2023-02-01T19:09:12.462Z,2.30
2023-02-01T19:11:39.776Z,2.30
2023-02-01T19:14:07.276Z,2.40
2023-02-01T19:16:38.459Z,2.40
2023-02-01T19:19:06.096Z,2.50
2023-02-01T19:21:33.321Z,2.60
2023-02-01T19:24:00.997Z,2.60
2023-02-01T19:26:28.430Z,2.60
2023-02-01T19:28:58.449Z,2.70
2023-02-01T19:31:25.810Z,2.70
2023-02-01T19:33:54.992Z,2.80
2023-02-01T19:36:22.408Z,2.90
2023-02-01T19:38:50.049Z,3.00
2023-02-01T19:41:17.276Z,3.00
2023-02-01T19:43:44.934Z,3.00
2023-02-01T19:46:12.569Z,3.00
2023-02-01T19:48:40.080Z,3.10
2023-02-01T19:51:08.514Z,3.10
2023-02-01T19:53:36.045Z,3.10
2023-02-01T19:56:03.470Z,3.20
2023-02-01T19:58:31.044Z,3.30
2023-02-01T20:00:59.848Z,3.20
2023-02-01T20:03:28.723Z,3.30
2023-02-01T20:05:58.359Z,3.30
2023-02-01T20:08:26.255Z,3.30
2023-02-01T20:10:53.935Z,3.30
2023-02-01T20:13:21.613Z,3.40
2023-02-01T20:15:48.997Z,3.40
2023-02-01T20:18:16.626Z,3.40
2023-02-01T20:20:43.822Z,3.40
2023-02-01T20:23:11.643Z,3.50
2023-02-01T20:25:41.348Z,3.40
2023-02-01T20:28:08.980Z,3.50
2023-02-01T20:30:36.304Z,3.50
2023-02-01T20:33:03.899Z,3.40
2023-02-01T20:35:31.475Z,3.40
2023-02-01T20:37:59.203Z,3.40
2023-02-01T20:40:26.500Z,3.40
2023-02-01T20:42:54.616Z,3.50
2023-02-01T20:45:22.250Z,3.50
2023-02-01T20:47:52.691Z,3.50
2023-02-01T20:50:23.032Z,3.50
2023-02-01T20:52:51.077Z,3.50
2023-02-01T20:55:18.609Z,3.50
2023-02-01T20:57:46.342Z,3.50
2023-02-01T21:00:14.022Z,3.50
2023-02-01T21:02:41.609Z,3.50
2023-02-01T21:05:09.522Z,3.50
2023-02-01T21:07:38.172Z,3.50
2023-02-01T21:10:07.229Z,3.50
2023-02-01T21:12:35.717Z,3.60
2023-02-01T21:15:04.629Z,3.50
2023-02-01T21:17:33.066Z,3.60
2023-02-01T21:20:00.400Z,3.60
2023-02-01T21:22:28.416Z,3.60
2023-02-01T21:24:55.784Z,3.60
2023-02-01T21:27:23.550Z,3.50
2023-02-01T21:29:50.970Z,3.50
2023-02-01T21:32:18.557Z,3.50
2023-02-01T21:34:45.700Z,3.50
2023-02-01T21:37:13.274Z,3.50
2023-02-01T21:39:40.614Z,3.40
2023-02-01T21:42:17.428Z,3.30
2023-02-01T21:44:49.045Z,3.20
2023-02-01T21:47:18.764Z,2.90
2023-02-01T21:49:47.014Z,2.70
2023-02-01T21:52:17.318Z,2.60
2023-02-01T21:54:44.712Z,2.60
2023-02-01T21:57:12.861Z,2.50
2023-02-01T21:59:41.968Z,2.50
2023-02-01T22:02:14.328Z,2.50
2023-02-01T22:04:41.851Z,2.60
2023-02-01T22:07:11.709Z,2.60
2023-02-01T22:09:38.928Z,2.60
2023-02-01T22:12:08.507Z,2.70
2023-02-01T22:14:35.771Z,2.60
2023-02-01T22:17:03.425Z,2.60
2023-02-01T22:19:30.601Z,2.60
2023-02-01T22:21:58.038Z,2.60
2023-02-01T22:24:25.550Z,2.60
2023-02-01T22:26:53.246Z,2.50
2023-02-01T22:29:20.774Z,2.50
2023-02-01T22:31:48.690Z,2.60
2023-02-01T22:34:16.445Z,2.60
2023-02-01T22:36:44.400Z,2.60
2023-02-01T22:39:11.718Z,2.50
2023-02-01T22:41:40.061Z,2.50
2023-02-01T22:44:07.535Z,2.50
2023-02-01T22:46:35.382Z,2.50
2023-02-01T22:49:04.160Z,2.50
2023-02-01T22:51:33.112Z,2.50
2023-02-01T22:54:01.197Z,2.50
2023-02-01T22:56:36.451Z,2.60
2023-02-01T22:59:10.832Z,2.60
2023-02-01T23:01:38.571Z,2.60
2023-02-01T23:04:07.822Z,2.70
2023-02-01T23:06:35.778Z,2.70
2023-02-01T23:09:25.149Z,2.70
2023-02-01T23:11:54.062Z,2.70
2023-02-01T23:14:30.640Z,2.60
2023-02-01T23:16:58.121Z,2.60
2023-02-01T23:19:25.456Z,2.70
2023-02-01T23:21:52.934Z,2.70
2023-02-01T23:24:20.134Z,2.60
2023-02-01T23:26:47.944Z,2.70
2023-02-01T23:29:19.328Z,2.60
2023-02-01T23:31:47.353Z,2.50
2023-02-01T23:34:14.746Z,2.50
2023-02-01T23:36:42.289Z,2.50
2023-02-01T23:39:09.569Z,2.60
2023-02-01T23:41:37.087Z,2.60
2023-02-01T23:44:04.643Z,2.60
2023-02-01T23:46:33.783Z,2.60
2023-02-01T23:49:02.455Z,2.60
2023-02-01T23:51:30.471Z,2.60
2023-02-01T23:53:58.550Z,2.60
2023-02-01T23:56:27.896Z,2.60
2023-02-01T23:58:56.823Z,2.60
